sensor_id;sensor_type;location;lat;lon;timestamp;pressure;altitude;pressure_sealevel;temperature;humidity
10712;BME280;5407;51.234;6.804;2023-03-31T00:01:08;100034.97;;;24.50;40.33
10712;BME280;5407;51.234;6.804;2023-03-31T00:03:35;100038.91;;;24.49;40.26
10712;BME280;5407;51.234;6.804;2023-03-31T00:06:04;100022.34;;;24.49;40.27
10712;BME280;5407;51.234;6.804;2023-03-31T00:08:31;100021.56;;;24.49;40.27
10712;BME280;5407;51.234;6.804;2023-03-31T00:11:03;100020.03;;;24.48;40.26
10712;BME280;5407;51.234;6.804;2023-03-31T00:13:34;100028.78;;;24.46;40.69
10712;BME280;5407;51.234;6.804;2023-03-31T00:16:03;100016.53;;;24.47;40.54
10712;BME280;5407;51.234;6.804;2023-03-31T00:18:31;100018.50;;;24.47;40.39
10712;BME280;5407;51.234;6.804;2023-03-31T00:21:07;100013.00;;;24.47;40.44
10712;BME280;5407;51.234;6.804;2023-03-31T00:23:39;100006.72;;;24.46;40.75
10712;BME280;5407;51.234;6.804;2023-03-31T00:26:06;99998.44;;;24.46;40.73
10712;BME280;5407;51.234;6.804;2023-03-31T00:28:34;99995.69;;;24.46;40.54
10712;BME280;5407;51.234;6.804;2023-03-31T00:31:02;99988.63;;;24.45;40.60
10712;BME280;5407;51.234;6.804;2023-03-31T00:33:29;99977.59;;;24.45;40.65
10712;BME280;5407;51.234;6.804;2023-03-31T00:35:56;99980.38;;;24.45;40.58
10712;BME280;5407;51.234;6.804;2023-03-31T00:38:27;99966.56;;;24.45;40.51
10712;BME280;5407;51.234;6.804;2023-03-31T00:40:54;99963.50;;;24.43;40.89
10712;BME280;5407;51.234;6.804;2023-03-31T00:43:28;99945.44;;;24.42;40.59
10712;BME280;5407;51.234;6.804;2023-03-31T00:46:01;99947.72;;;24.44;40.26
10712;BME280;5407;51.234;6.804;2023-03-31T00:48:31;99927.19;;;24.45;40.35
10712;BME280;5407;51.234;6.804;2023-03-31T00:50:59;99918.59;;;24.43;40.65
10712;BME280;5407;51.234;6.804;2023-03-31T00:53:31;99918.16;;;24.44;40.39
10712;BME280;5407;51.234;6.804;2023-03-31T00:56:05;99911.44;;;24.45;40.57
10712;BME280;5407;51.234;6.804;2023-03-31T00:58:33;99901.16;;;24.46;40.60
10712;BME280;5407;51.234;6.804;2023-03-31T01:01:02;99904.22;;;24.48;40.49
10712;BME280;5407;51.234;6.804;2023-03-31T01:03:30;99888.91;;;24.47;40.91
10712;BME280;5407;51.234;6.804;2023-03-31T01:06:02;99884.47;;;24.49;40.73
10712;BME280;5407;51.234;6.804;2023-03-31T01:08:31;99890.78;;;24.50;40.87
10712;BME280;5407;51.234;6.804;2023-03-31T01:11:03;99893.97;;;24.48;40.91
10712;BME280;5407;51.234;6.804;2023-03-31T01:13:30;99890.00;;;24.49;40.86
10712;BME280;5407;51.234;6.804;2023-03-31T01:15:58;99893.53;;;24.50;40.90
10712;BME280;5407;51.234;6.804;2023-03-31T01:18:27;99885.25;;;24.50;40.92
10712;BME280;5407;51.234;6.804;2023-03-31T01:21:17;99872.66;;;24.49;41.01
10712;BME280;5407;51.234;6.804;2023-03-31T01:24:17;99863.53;;;24.52;40.96
10712;BME280;5407;51.234;6.804;2023-03-31T01:27:09;99850.94;;;24.51;41.08
10712;BME280;5407;51.234;6.804;2023-03-31T01:33:07;99843.13;;;24.49;40.90
10712;BME280;5407;51.234;6.804;2023-03-31T01:39:18;99839.59;;;24.49;40.99
10712;BME280;5407;51.234;6.804;2023-03-31T01:41:58;99837.28;;;24.47;41.06
10712;BME280;5407;51.234;6.804;2023-03-31T01:44:36;99834.53;;;24.47;40.96
10712;BME280;5407;51.234;6.804;2023-03-31T01:47:09;99835.28;;;24.48;41.01
10712;BME280;5407;51.234;6.804;2023-03-31T01:49:47;99819.97;;;24.47;41.06
10712;BME280;5407;51.234;6.804;2023-03-31T01:52:20;99831.00;;;24.47;40.87
10712;BME280;5407;51.234;6.804;2023-03-31T01:54:52;99829.47;;;24.46;41.07
10712;BME280;5407;51.234;6.804;2023-03-31T01:57:27;99817.69;;;24.45;40.90
10712;BME280;5407;51.234;6.804;2023-03-31T02:00:02;99805.88;;;24.45;40.84
10712;BME280;5407;51.234;6.804;2023-03-31T02:02:41;99809.41;;;24.45;40.97
10712;BME280;5407;51.234;6.804;2023-03-31T02:05:10;99807.09;;;24.44;40.86
10712;BME280;5407;51.234;6.804;2023-03-31T02:07:42;99794.09;;;24.44;41.08
10712;BME280;5407;51.234;6.804;2023-03-31T02:10:13;99791.78;;;24.43;40.85
10712;BME280;5407;51.234;6.804;2023-03-31T02:12:44;99789.81;;;24.43;41.01
10712;BME280;5407;51.234;6.804;2023-03-31T02:15:14;99789.50;;;24.41;41.00
10712;BME280;5407;51.234;6.804;2023-03-31T02:17:47;99777.25;;;24.42;40.91
10712;BME280;5407;51.234;6.804;2023-03-31T02:20:17;99772.94;;;24.41;40.92
10712;BME280;5407;51.234;6.804;2023-03-31T02:22:47;99768.66;;;24.40;41.02
10712;BME280;5407;51.234;6.804;2023-03-31T02:25:18;99756.41;;;24.41;40.88
10712;BME280;5407;51.234;6.804;2023-03-31T02:27:51;99747.34;;;24.41;41.04
10712;BME280;5407;51.234;6.804;2023-03-31T02:30:19;99743.84;;;24.40;40.81
10712;BME280;5407;51.234;6.804;2023-03-31T02:32:46;99735.56;;;24.40;41.12
10712;BME280;5407;51.234;6.804;2023-03-31T02:35:14;99717.50;;;24.39;41.01
10712;BME280;5407;51.234;6.804;2023-03-31T02:37:42;99713.22;;;24.38;40.93
10712;BME280;5407;51.234;6.804;2023-03-31T02:40:16;99705.69;;;24.39;41.10
10712;BME280;5407;51.234;6.804;2023-03-31T02:42:44;99697.41;;;24.39;40.89
10712;BME280;5407;51.234;6.804;2023-03-31T02:45:38;99683.63;;;24.39;41.15
10712;BME280;5407;51.234;6.804;2023-03-31T02:48:09;99679.34;;;24.38;40.99
10712;BME280;5407;51.234;6.804;2023-03-31T02:50:47;99673.09;;;24.37;41.11
10712;BME280;5407;51.234;6.804;2023-03-31T02:53:23;99663.28;;;24.36;41.21
10712;BME280;5407;51.234;6.804;2023-03-31T02:56:02;99655.00;;;24.36;40.94
10712;BME280;5407;51.234;6.804;2023-03-31T02:58:55;99652.25;;;24.36;41.01
10712;BME280;5407;51.234;6.804;2023-03-31T03:01:38;99634.50;;;24.37;41.24
10712;BME280;5407;51.234;6.804;2023-03-31T03:04:19;99626.66;;;24.36;41.30
10712;BME280;5407;51.234;6.804;2023-03-31T03:06:54;99612.09;;;24.35;41.13
10712;BME280;5407;51.234;6.804;2023-03-31T03:09:34;99591.28;;;24.34;41.17
10712;BME280;5407;51.234;6.804;2023-03-31T03:12:11;99594.03;;;24.34;41.18
10712;BME280;5407;51.234;6.804;2023-03-31T03:14:45;99603.09;;;24.35;41.11
10712;BME280;5407;51.234;6.804;2023-03-31T03:17:19;99593.72;;;24.32;41.46
10712;BME280;5407;51.234;6.804;2023-03-31T03:19:51;99592.06;;;24.35;41.04
10712;BME280;5407;51.234;6.804;2023-03-31T03:22:19;99581.47;;;24.33;41.37
10712;BME280;5407;51.234;6.804;2023-03-31T03:24:46;99570.00;;;24.35;41.16
10712;BME280;5407;51.234;6.804;2023-03-31T03:27:13;99567.69;;;24.33;41.36
10712;BME280;5407;51.234;6.804;2023-03-31T03:29:40;99571.97;;;24.34;41.10
10712;BME280;5407;51.234;6.804;2023-03-31T03:32:08;99566.47;;;24.34;41.12
10712;BME280;5407;51.234;6.804;2023-03-31T03:34:36;99562.97;;;24.34;41.23
10712;BME280;5407;51.234;6.804;2023-03-31T03:37:03;99555.44;;;24.34;41.11
10712;BME280;5407;51.234;6.804;2023-03-31T03:39:30;99541.66;;;24.34;41.29
10712;BME280;5407;51.234;6.804;2023-03-31T03:41:57;99547.16;;;24.34;41.13
10712;BME280;5407;51.234;6.804;2023-03-31T03:44:23;99551.16;;;24.33;41.28
10712;BME280;5407;51.234;6.804;2023-03-31T03:46:50;99556.66;;;24.33;41.26
10712;BME280;5407;51.234;6.804;2023-03-31T03:49:17;99552.69;;;24.34;41.32
10712;BME280;5407;51.234;6.804;2023-03-31T03:51:46;99526.34;;;24.33;41.04
10712;BME280;5407;51.234;6.804;2023-03-31T03:54:14;99496.03;;;24.33;41.30
10712;BME280;5407;51.234;6.804;2023-03-31T03:56:41;99511.03;;;24.32;41.27
10712;BME280;5407;51.234;6.804;2023-03-31T03:59:09;99496.03;;;24.33;41.15
10712;BME280;5407;51.234;6.804;2023-03-31T04:01:36;99487.75;;;24.33;41.26
10712;BME280;5407;51.234;6.804;2023-03-31T04:04:03;99490.50;;;24.33;41.10
10712;BME280;5407;51.234;6.804;2023-03-31T04:06:30;99491.72;;;24.32;41.23
10712;BME280;5407;51.234;6.804;2023-03-31T04:08:58;99479.47;;;24.33;41.10
10712;BME280;5407;51.234;6.804;2023-03-31T04:11:25;99494.50;;;24.32;41.23
10712;BME280;5407;51.234;6.804;2023-03-31T04:13:52;99488.97;;;24.32;41.25
10712;BME280;5407;51.234;6.804;2023-03-31T04:16:19;99488.97;;;24.32;41.10
10712;BME280;5407;51.234;6.804;2023-03-31T04:18:47;99478.44;;;24.31;41.13
10712;BME280;5407;51.234;6.804;2023-03-31T04:21:14;99475.97;;;24.33;41.28
10712;BME280;5407;51.234;6.804;2023-03-31T04:23:48;99468.16;;;24.31;41.21
10712;BME280;5407;51.234;6.804;2023-03-31T04:26:17;99462.66;;;24.31;41.05
10712;BME280;5407;51.234;6.804;2023-03-31T04:28:51;99459.44;;;24.33;41.08
10712;BME280;5407;51.234;6.804;2023-03-31T04:31:17;99448.84;;;24.31;41.18
10712;BME280;5407;51.234;6.804;2023-03-31T04:33:49;99443.34;;;24.31;41.30
10712;BME280;5407;51.234;6.804;2023-03-31T04:36:16;99435.09;;;24.31;41.19
10712;BME280;5407;51.234;6.804;2023-03-31T04:38:43;99424.06;;;24.31;41.13
10712;BME280;5407;51.234;6.804;2023-03-31T04:41:12;99398.50;;;24.31;41.26
10712;BME280;5407;51.234;6.804;2023-03-31T04:43:41;99390.22;;;24.31;41.03
10712;BME280;5407;51.234;6.804;2023-03-31T04:46:08;99394.50;;;24.32;41.25
10712;BME280;5407;51.234;6.804;2023-03-31T04:48:35;99382.72;;;24.31;41.30
10712;BME280;5407;51.234;6.804;2023-03-31T04:51:02;99379.19;;;24.31;41.02
10712;BME280;5407;51.234;6.804;2023-03-31T04:53:29;99360.66;;;24.31;41.11
10712;BME280;5407;51.234;6.804;2023-03-31T04:55:56;99370.94;;;24.31;40.95
10712;BME280;5407;51.234;6.804;2023-03-31T04:58:23;99364.19;;;24.32;40.83
10712;BME280;5407;51.234;6.804;2023-03-31T05:00:52;99356.69;;;24.32;41.14
10712;BME280;5407;51.234;6.804;2023-03-31T05:03:19;99347.19;;;24.33;41.18
10712;BME280;5407;51.234;6.804;2023-03-31T05:05:46;99341.97;;;24.35;41.30
10712;BME280;5407;51.234;6.804;2023-03-31T05:08:13;99347.81;;;24.37;41.34
10712;BME280;5407;51.234;6.804;2023-03-31T05:10:40;99333.53;;;24.39;41.12
10712;BME280;5407;51.234;6.804;2023-03-31T05:13:08;99330.63;;;24.33;41.26
10712;BME280;5407;51.234;6.804;2023-03-31T05:15:36;99326.97;;;24.36;41.30
10712;BME280;5407;51.234;6.804;2023-03-31T05:18:05;99321.13;;;24.34;41.36
10712;BME280;5407;51.234;6.804;2023-03-31T05:20:32;99323.44;;;24.36;41.31
10712;BME280;5407;51.234;6.804;2023-03-31T05:22:59;99310.91;;;24.35;41.51
10712;BME280;5407;51.234;6.804;2023-03-31T05:25:26;99303.06;;;24.33;41.21
10712;BME280;5407;51.234;6.804;2023-03-31T05:27:57;99299.41;;;24.36;41.38
10712;BME280;5407;51.234;6.804;2023-03-31T05:30:25;99292.06;;;24.33;41.33
10712;BME280;5407;51.234;6.804;2023-03-31T05:32:52;99283.31;;;24.35;41.28
10712;BME280;5407;51.234;6.804;2023-03-31T05:35:20;99290.81;;;24.34;41.28
10712;BME280;5407;51.234;6.804;2023-03-31T05:37:47;99293.28;;;24.32;41.55
10712;BME280;5407;51.234;6.804;2023-03-31T05:40:14;99287.78;;;24.32;41.33
10712;BME280;5407;51.234;6.804;2023-03-31T05:42:41;99289.28;;;24.33;41.37
10712;BME280;5407;51.234;6.804;2023-03-31T05:45:08;99269.72;;;24.31;41.29
10712;BME280;5407;51.234;6.804;2023-03-31T05:47:35;99274.00;;;24.32;41.36
10712;BME280;5407;51.234;6.804;2023-03-31T05:50:03;99273.81;;;24.36;40.95
10712;BME280;5407;51.234;6.804;2023-03-31T05:52:34;99273.06;;;24.35;40.77
10712;BME280;5407;51.234;6.804;2023-03-31T05:55:01;99259.28;;;24.35;41.07
10712;BME280;5407;51.234;6.804;2023-03-31T05:57:28;99271.84;;;24.36;40.91
10712;BME280;5407;51.234;6.804;2023-03-31T05:59:55;99258.06;;;24.36;40.93
10712;BME280;5407;51.234;6.804;2023-03-31T06:02:22;99255.59;;;24.38;41.12
10712;BME280;5407;51.234;6.804;2023-03-31T06:04:49;99254.09;;;24.37;41.18
10712;BME280;5407;51.234;6.804;2023-03-31T06:07:16;99244.59;;;24.38;41.24
10712;BME280;5407;51.234;6.804;2023-03-31T06:09:45;99244.59;;;24.38;41.70
10712;BME280;5407;51.234;6.804;2023-03-31T06:12:12;99241.81;;;24.38;41.60
10712;BME280;5407;51.234;6.804;2023-03-31T06:14:40;99245.31;;;24.39;41.36
10712;BME280;5407;51.234;6.804;2023-03-31T06:17:07;99231.53;;;24.39;41.34
10712;BME280;5407;51.234;6.804;2023-03-31T06:19:34;99235.06;;;24.39;41.35
10712;BME280;5407;51.234;6.804;2023-03-31T06:22:00;99227.09;;;24.41;41.54
10712;BME280;5407;51.234;6.804;2023-03-31T06:24:27;99218.53;;;24.39;41.55
10712;BME280;5407;51.234;6.804;2023-03-31T06:26:55;99219.28;;;24.40;41.47
10712;BME280;5407;51.234;6.804;2023-03-31T06:29:23;99215.78;;;24.39;41.35
10712;BME280;5407;51.234;6.804;2023-03-31T06:31:50;99211.50;;;24.38;41.46
10712;BME280;5407;51.234;6.804;2023-03-31T06:34:17;99221.00;;;24.37;41.37
10712;BME280;5407;51.234;6.804;2023-03-31T06:36:43;99214.72;;;24.37;41.44
10712;BME280;5407;51.234;6.804;2023-03-31T06:39:10;99213.97;;;24.36;41.35
10712;BME280;5407;51.234;6.804;2023-03-31T06:41:37;99211.66;;;24.35;41.47
10712;BME280;5407;51.234;6.804;2023-03-31T06:44:05;99214.41;;;24.35;41.40
10712;BME280;5407;51.234;6.804;2023-03-31T06:46:32;99220.69;;;24.35;41.68
10712;BME280;5407;51.234;6.804;2023-03-31T06:48:59;99219.16;;;24.34;41.62
10712;BME280;5407;51.234;6.804;2023-03-31T06:51:26;99203.84;;;24.33;41.64
10712;BME280;5407;51.234;6.804;2023-03-31T06:53:52;99213.34;;;24.32;41.49
10712;BME280;5407;51.234;6.804;2023-03-31T06:56:19;99203.56;;;24.31;41.45
10712;BME280;5407;51.234;6.804;2023-03-31T06:58:46;99196.81;;;24.32;41.65
10712;BME280;5407;51.234;6.804;2023-03-31T07:01:14;99200.81;;;24.31;41.37
10712;BME280;5407;51.234;6.804;2023-03-31T07:03:41;99200.81;;;24.31;41.45
10712;BME280;5407;51.234;6.804;2023-03-31T07:06:08;99197.75;;;24.29;41.48
10712;BME280;5407;51.234;6.804;2023-03-31T07:08:35;99201.28;;;24.30;41.61
10712;BME280;5407;51.234;6.804;2023-03-31T07:11:02;99199.28;;;24.30;41.48
10712;BME280;5407;51.234;6.804;2023-03-31T07:13:29;99201.28;;;24.30;41.34
10712;BME280;5407;51.234;6.804;2023-03-31T07:15:56;99195.78;;;24.30;41.43
10712;BME280;5407;51.234;6.804;2023-03-31T07:18:24;99197.00;;;24.29;41.42
10712;BME280;5407;51.234;6.804;2023-03-31T07:20:56;99192.25;;;24.29;41.39
10712;BME280;5407;51.234;6.804;2023-03-31T07:23:23;99186.72;;;24.29;41.41
10712;BME280;5407;51.234;6.804;2023-03-31T07:25:50;99184.25;;;24.31;41.52
10712;BME280;5407;51.234;6.804;2023-03-31T07:28:17;99177.22;;;24.30;41.25
10712;BME280;5407;51.234;6.804;2023-03-31T07:30:44;99180.28;;;24.32;41.32
10712;BME280;5407;51.234;6.804;2023-03-31T07:33:11;99178.75;;;24.31;41.52
10712;BME280;5407;51.234;6.804;2023-03-31T07:35:39;99177.53;;;24.32;41.47
10712;BME280;5407;51.234;6.804;2023-03-31T07:38:07;99180.28;;;24.32;41.72
10712;BME280;5407;51.234;6.804;2023-03-31T07:40:34;99170.78;;;24.33;41.50
10712;BME280;5407;51.234;6.804;2023-03-31T07:43:02;99172.78;;;24.33;41.48
10712;BME280;5407;51.234;6.804;2023-03-31T07:45:29;99166.03;;;24.34;41.48
10712;BME280;5407;51.234;6.804;2023-03-31T07:47:56;99173.81;;;24.35;41.66
10712;BME280;5407;51.234;6.804;2023-03-31T07:50:23;99170.44;;;24.40;41.85
10712;BME280;5407;51.234;6.804;2023-03-31T07:52:54;99166.47;;;24.41;41.65
10712;BME280;5407;51.234;6.804;2023-03-31T07:55:22;99160.66;;;24.39;41.46
10712;BME280;5407;51.234;6.804;2023-03-31T07:57:51;99150.88;;;24.38;41.70
10712;BME280;5407;51.234;6.804;2023-03-31T08:00:19;99154.84;;;24.37;41.43
10712;BME280;5407;51.234;6.804;2023-03-31T08:02:46;99149.34;;;24.37;41.58
10712;BME280;5407;51.234;6.804;2023-03-31T08:05:15;99154.84;;;24.37;41.64
10712;BME280;5407;51.234;6.804;2023-03-31T08:07:43;99153.31;;;24.36;41.46
10712;BME280;5407;51.234;6.804;2023-03-31T08:10:15;99156.09;;;24.36;41.42
10712;BME280;5407;51.234;6.804;2023-03-31T08:12:42;99157.59;;;24.37;41.69
10712;BME280;5407;51.234;6.804;2023-03-31T08:15:09;99147.81;;;24.36;41.32
10712;BME280;5407;51.234;6.804;2023-03-31T08:17:36;99154.84;;;24.37;41.52
10712;BME280;5407;51.234;6.804;2023-03-31T08:20:04;99143.81;;;24.37;41.56
10712;BME280;5407;51.234;6.804;2023-03-31T08:22:33;99150.88;;;24.38;41.35
10712;BME280;5407;51.234;6.804;2023-03-31T08:25:00;99155.16;;;24.39;41.39
10712;BME280;5407;51.234;6.804;2023-03-31T08:27:32;99149.16;;;24.41;41.36
10712;BME280;5407;51.234;6.804;2023-03-31T08:29:59;99149.63;;;24.39;41.41
10712;BME280;5407;51.234;6.804;2023-03-31T08:32:27;99143.63;;;24.41;41.33
10712;BME280;5407;51.234;6.804;2023-03-31T08:34:54;99143.47;;;24.44;41.54
10712;BME280;5407;51.234;6.804;2023-03-31T08:37:21;99141.00;;;24.46;41.49
10712;BME280;5407;51.234;6.804;2023-03-31T08:39:48;99137.00;;;24.47;41.22
10712;BME280;5407;51.234;6.804;2023-03-31T08:42:19;99145.56;;;24.49;41.42
10712;BME280;5407;51.234;6.804;2023-03-31T08:44:56;99136.38;;;24.52;41.21
10712;BME280;5407;51.234;6.804;2023-03-31T08:47:25;99141.41;;;24.54;41.29
10712;BME280;5407;51.234;6.804;2023-03-31T08:49:55;99129.91;;;24.55;41.26
10712;BME280;5407;51.234;6.804;2023-03-31T08:52:26;99119.47;;;24.59;41.63
10712;BME280;5407;51.234;6.804;2023-03-31T08:54:57;99116.72;;;24.59;41.11
10712;BME280;5407;51.234;6.804;2023-03-31T08:57:29;99129.25;;;24.60;40.91
10712;BME280;5407;51.234;6.804;2023-03-31T09:00:00;99119.75;;;24.61;41.22
10712;BME280;5407;51.234;6.804;2023-03-31T09:02:35;99115.78;;;24.62;41.29
10712;BME280;5407;51.234;6.804;2023-03-31T09:05:25;99116.84;;;24.65;41.12
10712;BME280;5407;51.234;6.804;2023-03-31T09:08:05;99107.78;;;24.64;41.25
10712;BME280;5407;51.234;6.804;2023-03-31T09:10:40;99108.34;;;24.68;41.12
10712;BME280;5407;51.234;6.804;2023-03-31T09:13:23;99105.59;;;24.68;40.97
10712;BME280;5407;51.234;6.804;2023-03-31T09:16:00;99097.31;;;24.68;40.80
10712;BME280;5407;51.234;6.804;2023-03-31T09:18:31;99111.13;;;24.68;40.95
10712;BME280;5407;51.234;6.804;2023-03-31T09:21:03;99102.84;;;24.68;40.72
10712;BME280;5407;51.234;6.804;2023-03-31T09:23:35;99092.59;;;24.69;40.96
10712;BME280;5407;51.234;6.804;2023-03-31T09:26:04;99101.59;;;24.69;40.71
10712;BME280;5407;51.234;6.804;2023-03-31T09:28:38;99091.81;;;24.68;40.52
10712;BME280;5407;51.234;6.804;2023-03-31T09:31:12;99092.59;;;24.69;40.38
10712;BME280;5407;51.234;6.804;2023-03-31T09:33:43;99087.06;;;24.69;40.19
10712;BME280;5407;51.234;6.804;2023-03-31T09:36:14;99082.31;;;24.69;40.49
10712;BME280;5407;51.234;6.804;2023-03-31T09:38:43;99085.06;;;24.69;40.04
10712;BME280;5407;51.234;6.804;2023-03-31T09:41:10;99074.31;;;24.71;40.46
10712;BME280;5407;51.234;6.804;2023-03-31T09:43:39;99071.84;;;24.73;40.07
10712;BME280;5407;51.234;6.804;2023-03-31T09:46:15;99066.31;;;24.73;40.21
10712;BME280;5407;51.234;6.804;2023-03-31T09:48:50;99067.84;;;24.74;39.82
10712;BME280;5407;51.234;6.804;2023-03-31T09:51:22;99058.06;;;24.73;39.90
10712;BME280;5407;51.234;6.804;2023-03-31T09:53:54;99064.53;;;24.70;39.90
10712;BME280;5407;51.234;6.804;2023-03-31T09:56:44;99065.28;;;24.71;39.79
10712;BME280;5407;51.234;6.804;2023-03-31T09:59:15;99093.34;;;24.69;40.02
10712;BME280;5407;51.234;6.804;2023-03-31T10:01:45;99089.06;;;24.68;39.71
10712;BME280;5407;51.234;6.804;2023-03-31T10:04:18;99078.03;;;24.68;39.89
10712;BME280;5407;51.234;6.804;2023-03-31T10:06:46;99061.75;;;24.70;39.84
10712;BME280;5407;51.234;6.804;2023-03-31T10:09:13;99059.28;;;24.72;39.77
10712;BME280;5407;51.234;6.804;2023-03-31T10:11:52;99064.81;;;24.72;39.88
10712;BME280;5407;51.234;6.804;2023-03-31T10:14:24;99049.78;;;24.73;39.78
10712;BME280;5407;51.234;6.804;2023-03-31T10:16:55;99050.56;;;24.74;39.70
10712;BME280;5407;51.234;6.804;2023-03-31T10:19:24;99044.25;;;24.73;39.33
10712;BME280;5407;51.234;6.804;2023-03-31T10:21:56;99045.78;;;24.74;39.29
10712;BME280;5407;51.234;6.804;2023-03-31T10:24:24;99037.34;;;24.78;39.97
10712;BME280;5407;51.234;6.804;2023-03-31T10:26:53;99029.81;;;24.78;39.50
10712;BME280;5407;51.234;6.804;2023-03-31T10:29:23;99033.34;;;24.79;39.44
10712;BME280;5407;51.234;6.804;2023-03-31T10:31:51;99027.34;;;24.80;39.65
10712;BME280;5407;51.234;6.804;2023-03-31T10:34:20;99017.06;;;24.81;39.92
10712;BME280;5407;51.234;6.804;2023-03-31T10:36:50;99014.59;;;24.83;39.82
10712;BME280;5407;51.234;6.804;2023-03-31T10:39:18;99011.38;;;24.84;39.78
10712;BME280;5407;51.234;6.804;2023-03-31T10:41:49;99004.63;;;24.85;39.85
10712;BME280;5407;51.234;6.804;2023-03-31T10:44:32;99005.66;;;24.88;39.79
10712;BME280;5407;51.234;6.804;2023-03-31T10:47:04;99004.41;;;24.89;39.64
10712;BME280;5407;51.234;6.804;2023-03-31T10:49:37;98999.19;;;24.91;39.69
10712;BME280;5407;51.234;6.804;2023-03-31T10:52:14;99008.22;;;24.91;39.46
10712;BME280;5407;51.234;6.804;2023-03-31T10:54:46;99073.88;;;24.87;39.29
10712;BME280;5407;51.234;6.804;2023-03-31T10:57:13;99077.38;;;24.88;39.58
10712;BME280;5407;51.234;6.804;2023-03-31T10:59:52;99075.09;;;24.86;39.55
10712;BME280;5407;51.234;6.804;2023-03-31T11:02:50;99068.06;;;24.85;39.93
10712;BME280;5407;51.234;6.804;2023-03-31T11:05:27;99060.75;;;24.82;39.98
10712;BME280;5407;51.234;6.804;2023-03-31T11:08:09;99058.00;;;24.82;40.35
10712;BME280;5407;51.234;6.804;2023-03-31T11:10:51;99053.69;;;24.81;40.07
10712;BME280;5407;51.234;6.804;2023-03-31T11:13:25;99056.44;;;24.81;40.03
10712;BME280;5407;51.234;6.804;2023-03-31T11:16:05;99050.19;;;24.81;40.01
10712;BME280;5407;51.234;6.804;2023-03-31T11:18:46;99052.66;;;24.79;40.24
10712;BME280;5407;51.234;6.804;2023-03-31T11:21:23;99048.38;;;24.78;40.20
10712;BME280;5407;51.234;6.804;2023-03-31T11:24:01;99053.59;;;24.76;39.95
10712;BME280;5407;51.234;6.804;2023-03-31T11:26:40;99046.06;;;24.76;39.90
10712;BME280;5407;51.234;6.804;2023-03-31T11:29:22;99036.75;;;24.74;39.76
10712;BME280;5407;51.234;6.804;2023-03-31T11:31:56;99026.97;;;24.73;39.81
10712;BME280;5407;51.234;6.804;2023-03-31T11:34:52;99021.91;;;24.71;39.92
10712;BME280;5407;51.234;6.804;2023-03-31T11:37:38;99027.44;;;24.71;39.73
10712;BME280;5407;51.234;6.804;2023-03-31T11:40:28;99020.41;;;24.70;39.53
10712;BME280;5407;51.234;6.804;2023-03-31T11:43:02;99022.88;;;24.68;39.57
10712;BME280;5407;51.234;6.804;2023-03-31T11:45:34;99007.56;;;24.67;39.57
10712;BME280;5407;51.234;6.804;2023-03-31T11:48:06;99015.56;;;24.65;39.52
10712;BME280;5407;51.234;6.804;2023-03-31T11:50:38;99011.56;;;24.66;39.78
10712;BME280;5407;51.234;6.804;2023-03-31T11:53:14;99010.03;;;24.65;39.59
10712;BME280;5407;51.234;6.804;2023-03-31T11:55:43;99008.50;;;24.64;39.62
10712;BME280;5407;51.234;6.804;2023-03-31T11:58:15;99016.50;;;24.62;39.51
10712;BME280;5407;51.234;6.804;2023-03-31T12:00:45;99003.00;;;24.64;39.23
10712;BME280;5407;51.234;6.804;2023-03-31T12:03:15;98997.47;;;24.64;39.52
10712;BME280;5407;51.234;6.804;2023-03-31T12:05:46;98993.50;;;24.65;39.51
10712;BME280;5407;51.234;6.804;2023-03-31T12:08:22;98989.50;;;24.66;39.68
10712;BME280;5407;51.234;6.804;2023-03-31T12:10:54;98988.75;;;24.66;39.45
10712;BME280;5407;51.234;6.804;2023-03-31T12:13:35;98993.50;;;24.65;39.40
10712;BME280;5407;51.234;6.804;2023-03-31T12:16:10;98992.75;;;24.65;39.63
10712;BME280;5407;51.234;6.804;2023-03-31T12:18:42;99003.00;;;24.64;39.59
10712;BME280;5407;51.234;6.804;2023-03-31T12:21:11;99010.81;;;24.66;39.67
10712;BME280;5407;51.234;6.804;2023-03-31T12:23:42;99000.53;;;24.66;39.93
10712;BME280;5407;51.234;6.804;2023-03-31T12:26:21;99004.53;;;24.65;40.02
10712;BME280;5407;51.234;6.804;2023-03-31T12:28:50;98996.75;;;24.64;39.90
10712;BME280;5407;51.234;6.804;2023-03-31T12:31:21;98997.47;;;24.64;39.63
10712;BME280;5407;51.234;6.804;2023-03-31T12:33:53;98997.19;;;24.62;39.84
10712;BME280;5407;51.234;6.804;2023-03-31T12:36:31;98978.19;;;24.64;40.18
10712;BME280;5407;51.234;6.804;2023-03-31T12:39:20;98971.44;;;24.65;40.29
10712;BME280;5407;51.234;6.804;2023-03-31T12:42:02;98971.44;;;24.65;40.04
10712;BME280;5407;51.234;6.804;2023-03-31T12:44:40;98961.91;;;24.66;40.04
10712;BME280;5407;51.234;6.804;2023-03-31T12:47:40;98953.94;;;24.68;40.14
10712;BME280;5407;51.234;6.804;2023-03-31T12:50:22;98955.44;;;24.69;40.21
10712;BME280;5407;51.234;6.804;2023-03-31T12:52:57;98948.41;;;24.68;39.95
10712;BME280;5407;51.234;6.804;2023-03-31T12:55:35;98948.41;;;24.68;39.79
10712;BME280;5407;51.234;6.804;2023-03-31T12:58:38;98942.16;;;24.68;40.28
10712;BME280;5407;51.234;6.804;2023-03-31T13:01:07;98946.16;;;24.67;39.59
10712;BME280;5407;51.234;6.804;2023-03-31T13:03:52;98953.66;;;24.66;39.57
10712;BME280;5407;51.234;6.804;2023-03-31T13:09:39;98938.56;;;24.62;39.31
10712;BME280;5407;51.234;6.804;2023-03-31T13:12:13;98950.31;;;24.62;39.29
10712;BME280;5407;51.234;6.804;2023-03-31T13:14:42;98929.78;;;24.63;39.67
10712;BME280;5407;51.234;6.804;2023-03-31T13:17:37;98936.81;;;24.64;39.60
10712;BME280;5407;51.234;6.804;2023-03-31T13:20:25;98941.59;;;24.64;39.46
10712;BME280;5407;51.234;6.804;2023-03-31T13:23:00;98929.03;;;24.63;39.06
10712;BME280;5407;51.234;6.804;2023-03-31T13:25:41;98927.81;;;24.64;39.08
10712;BME280;5407;51.234;6.804;2023-03-31T13:28:17;98929.03;;;24.63;38.91
10712;BME280;5407;51.234;6.804;2023-03-31T13:30:52;98924.28;;;24.63;38.63
10712;BME280;5407;51.234;6.804;2023-03-31T13:33:41;98925.78;;;24.64;38.53
10712;BME280;5407;51.234;6.804;2023-03-31T13:39:31;98929.13;;;24.68;38.17
10712;BME280;5407;51.234;6.804;2023-03-31T13:42:17;98933.38;;;24.69;38.26
10712;BME280;5407;51.234;6.804;2023-03-31T13:45:00;98923.31;;;24.66;38.27
10712;BME280;5407;51.234;6.804;2023-03-31T13:50:48;98908.84;;;24.71;38.32